Terminal Aerodrome Forecast
Issued by NWS

Home | Current Version | Previous Version | Text Only | Print | Product List | Glossary Off
Versions: 1 2 3 4 5 6 7 8 9 10 11 12 13 14 15 16 17

923
FTUS41 KCLE 212337
TAFFDY
TAF
KFDY 212337Z 2200/2224 20005KT P6SM OVC100
      TEMPO 2206/2210 6SM BR BKN025
     FM221000 18003KT 4SM BR OVC025
     FM221200 18003KT 2SM BR OVC008
     FM221500 18006KT 6SM BR OVC015
     FM222000 21008KT P6SM OVC025
     FM222300 22008KT P6SM BKN045=

USA.gov is the U.S. government's official web portal to all federal, state and local government web resources and services.